Capitol Logistics 329


KRIV
March Air Reserve Base
Riverside, California, US
KCLT
Charlotte/Douglas International Airport
Charlotte, North Carolina, US

Route Details

Aircraft Information
Primary: Boeing 767-300BDSF
Backup: Not Available
Route Data
Distance: 1791nm
Sched. Duration: 4h 00m
Avg. Duration: 4h 15m (+15m)
Times Flown: 2
Recm'd Route: TRM J134 DRK J6 IRW KM33G SPKER NEWBB TAZZA FILPZ3
Planned Altitude: 35,000ft
Origin Wx: KRIV 061058Z 11008KT 10SM VCSH SCT003 OVC010 10/09 A2986 RMK AO2A RAB38E58 SLP109 P0000 T01000091
Dest. Wx: KCLT 061052Z 18004KT 10SM FEW250 13/11 A3007 RMK AO2 SLP176 T01280111
Notes:

Financial History
Total Freight: 131,500lbs
Average Load: 65,750lbs/flt
Fuel Used: 80,149lbs
Avg. Fuel Used: 40,075lbs/flt
Fuel Expense: $55,303
Avg. Fuel Expense: $27,651
Avg. Fuel Cost: $0.69/lbs
Total Gross Income: $210,474
Pilot Pay: $468
Total Expenses: $22,835
Total Revenue: $130,135
Average Revenue: $105,237.13